Time;durP1;ratioP1;P1;durP2;ratioP2;P2;SDS_P1;SDS_P2;PMS_P1;PMS_P2;Temp;Humidity;BMP_temperature;BMP_pressure;BME280_temperature;BME280_humidity;BME280_pressure;Samples;Min_cycle;Max_cycle;Signal;HPM_P1;HPM_P2
2023/01/16 00:01:12;;;;;;;;;1.00;1.00;;;;;11.28;100.00;99445.41;5099452;27;45508;-76
2023/01/16 00:03:38;;;;;;;;;3.67;2.00;;;;;11.52;100.00;99430.72;5083445;27;45390;-77
2023/01/16 00:06:03;;;;;;;;;1.00;0.00;;;;;11.54;100.00;99402.28;5101203;27;45565;-77
2023/01/16 00:08:29;;;;;;;;;4.67;1.00;;;;;11.65;100.00;99403.69;5097010;27;45382;-77
2023/01/16 00:10:54;;;;;;;;;3.67;1.33;;;;;11.31;100.00;99379.78;5086105;27;45427;-77
2023/01/16 00:13:19;;;;;;;;;2.33;1.67;;;;;11.35;100.00;99367.47;5079295;27;45414;-78
2023/01/16 00:15:46;;;;;;;;;3.00;1.67;;;;;11.50;100.00;99368.34;5068190;27;45385;-77
2023/01/16 00:18:12;;;;;;;;;3.00;1.67;;;;;11.20;100.00;99344.88;5095443;27;46784;-78
2023/01/16 00:20:37;;;;;;;;;3.00;2.00;;;;;11.35;100.00;99337.56;5091073;27;45385;-78
2023/01/16 00:23:02;;;;;;;;;7.00;3.00;;;;;11.38;100.00;99320.91;5094525;27;45480;-76
2023/01/16 00:25:28;;;;;;;;;3.00;2.00;;;;;11.49;100.00;99295.09;5082340;27;45232;-76
2023/01/16 00:27:53;;;;;;;;;1.33;1.33;;;;;11.46;100.00;99281.88;5091880;27;45422;-76
2023/01/16 00:30:19;;;;;;;;;1.00;1.00;;;;;11.40;100.00;99258.97;5099086;27;45728;-76
2023/01/16 00:32:44;;;;;;;;;2.67;0.67;;;;;11.25;100.00;99237.25;5093300;27;45568;-77
2023/01/16 00:35:10;;;;;;;;;4.00;1.00;;;;;11.38;100.00;99238.47;5094654;27;45251;-77
2023/01/16 00:37:35;;;;;;;;;3.00;1.33;;;;;11.14;100.00;99217.88;5076888;27;48421;-77
2023/01/16 00:40:00;;;;;;;;;0.33;0.33;;;;;11.45;100.00;99196.72;5092790;27;45386;-77
2023/01/16 00:42:26;;;;;;;;;3.00;1.00;;;;;11.54;100.00;99189.31;5076349;27;45662;-77
2023/01/16 00:44:51;;;;;;;;;1.00;1.00;;;;;11.46;100.00;99170.38;5094844;27;45339;-77
2023/01/16 00:47:16;;;;;;;;;1.00;1.00;;;;;11.47;100.00;99145.69;5077681;27;47124;-77
2023/01/16 00:49:42;;;;;;;;;1.00;1.00;;;;;11.51;100.00;99138.84;5071913;28;45376;-77
2023/01/16 00:52:07;;;;;;;;;2.67;2.00;;;;;11.43;100.00;99130.81;5074461;28;45354;-77
2023/01/16 00:54:32;;;;;;;;;1.00;1.00;;;;;11.46;100.00;99110.53;5090078;27;45425;-77
2023/01/16 00:56:58;;;;;;;;;1.67;0.67;;;;;11.43;100.00;99106.31;5077738;27;45419;-77
2023/01/16 00:59:23;;;;;;;;;1.67;1.67;;;;;11.54;100.00;99099.53;5069824;28;45246;-77
2023/01/16 01:01:48;;;;;;;;;2.00;1.00;;;;;11.39;100.00;99066.97;5074172;27;45448;-77
2023/01/16 01:04:14;;;;;;;;;2.00;0.00;;;;;11.45;100.00;99058.03;5076695;28;45459;-76
2023/01/16 01:06:40;;;;;;;;;4.00;1.00;;;;;11.51;100.00;99049.09;5090772;27;46297;-77
2023/01/16 01:09:05;;;;;;;;;5.33;0.33;;;;;11.59;100.00;99029.91;5094003;27;45757;-77
2023/01/16 01:11:31;;;;;;;;;1.00;1.00;;;;;11.62;100.00;99017.78;5088373;27;45327;-77
2023/01/16 01:13:56;;;;;;;;;0.00;0.00;;;;;11.51;100.00;99002.84;5083895;27;45281;-77
2023/01/16 01:16:22;;;;;;;;;0.00;0.00;;;;;11.44;100.00;98988.38;5089955;27;46447;-77
2023/01/16 01:18:47;;;;;;;;;1.00;1.00;;;;;11.62;100.00;98980.53;5094531;27;45219;-77
2023/01/16 01:21:13;;;;;;;;;0.00;0.00;;;;;11.70;100.00;98950.47;5081779;27;45246;-77
2023/01/16 01:23:38;;;;;;;;;0.67;0.67;;;;;11.62;100.00;98931.56;5095910;27;45243;-77
2023/01/16 01:26:08;;;;;;;;;2.00;1.00;;;;;11.65;100.00;98916.75;5088941;27;45650;-77
2023/01/16 01:28:34;;;;;;;;;1.67;1.00;;;;;11.65;100.00;98906.72;5095729;27;45392;-77
2023/01/16 01:31:08;;;;;;;;;1.00;1.00;;;;;11.69;100.00;98878.06;5088901;27;45340;-77
2023/01/16 01:33:33;;;;;;;;;1.00;1.00;;;;;11.60;100.00;98868.41;5081811;27;45575;-77
2023/01/16 01:35:59;;;;;;;;;0.00;0.00;;;;;11.67;100.00;98846.66;5090309;27;45372;-78
2023/01/16 01:38:24;;;;;;;;;3.33;0.00;;;;;11.58;100.00;98837.84;5083146;27;46022;-77
2023/01/16 01:40:50;;;;;;;;;1.67;0.00;;;;;11.59;100.00;98823.19;5093358;27;46326;-77
2023/01/16 01:43:16;;;;;;;;;0.00;0.00;;;;;11.47;100.00;98783.19;5099999;27;45661;-77
2023/01/16 01:45:50;;;;;;;;;0.00;0.00;;;;;11.64;100.00;98788.06;5092980;27;45369;-78
2023/01/16 01:48:26;;;;;;;;;1.00;1.00;;;;;11.66;100.00;98777.81;5094872;27;45269;-78
2023/01/16 01:51:05;;;;;;;;;0.00;0.00;;;;;11.60;100.00;98762.31;5093777;27;45519;-78
2023/01/16 01:53:44;;;;;;;;;0.33;0.33;;;;;11.52;100.00;98740.75;5078504;27;45337;-77
2023/01/16 01:56:19;;;;;;;;;1.00;1.00;;;;;11.55;100.00;98724.00;5075809;27;48395;-77
2023/01/16 01:58:50;;;;;;;;;2.00;1.67;;;;;11.43;100.00;98703.88;5090774;27;45510;-78
2023/01/16 02:01:15;;;;;;;;;1.00;1.00;;;;;11.51;100.00;98692.81;5090351;27;45509;-77
2023/01/16 02:03:58;;;;;;;;;3.00;0.00;;;;;11.39;100.00;98675.44;5085477;27;45440;-77
2023/01/16 02:06:54;;;;;;;;;1.67;0.00;;;;;11.42;100.00;98655.13;5096424;27;45619;-77
2023/01/16 02:09:22;;;;;;;;;1.00;1.00;;;;;11.28;100.00;98657.81;5063868;28;45523;-77
2023/01/16 02:12:01;;;;;;;;;3.33;0.67;;;;;11.42;100.00;98647.81;5092630;27;45541;-78
2023/01/16 02:14:30;;;;;;;;;4.00;0.00;;;;;11.37;100.00;98606.81;5094516;27;45216;-77
2023/01/16 02:20:09;;;;;;;;;1.33;1.33;;;;;11.34;100.00;98596.34;5094198;27;45489;-77
2023/01/16 02:22:54;;;;;;;;;2.00;1.00;;;;;11.07;100.00;98583.72;5092919;27;45658;-77
2023/01/16 02:25:57;;;;;;;;;0.00;0.00;;;;;11.12;100.00;98543.19;5087602;27;45498;-77
2023/01/16 02:28:52;;;;;;;;;6.67;0.00;;;;;12.42;100.00;98568.75;5096715;27;45546;-77
2023/01/16 02:31:34;;;;;;;;;0.00;0.00;;;;;8.70;100.00;98543.91;5090342;27;45624;-76
2023/01/16 02:34:08;;;;;;;;;0.00;0.00;;;;;9.79;100.00;98529.16;5098390;27;45239;-77
2023/01/16 02:37:11;;;;;;;;;0.00;0.00;;;;;11.22;100.00;98511.84;5090446;27;45381;-77
2023/01/16 02:39:55;;;;;;;;;0.00;0.00;;;;;11.49;100.00;98507.28;5093429;27;45429;-77
2023/01/16 02:42:26;;;;;;;;;0.00;0.00;;;;;11.67;100.00;98493.91;5076203;27;45497;-77
2023/01/16 02:44:59;;;;;;;;;1.00;1.00;;;;;11.60;100.00;98475.91;5096359;27;45271;-76
2023/01/16 02:47:36;;;;;;;;;0.00;0.00;;;;;11.58;100.00;98462.50;5095564;27;45647;-77
2023/01/16 02:50:17;;;;;;;;;1.00;1.00;;;;;11.66;100.00;98445.97;5091724;27;45415;-75
2023/01/16 02:53:21;;;;;;;;;0.00;0.00;;;;;11.79;100.00;98436.97;5097239;27;45468;-76
2023/01/16 02:55:57;;;;;;;;;0.00;0.00;;;;;11.78;100.00;98429.03;5056270;27;45518;-76
2023/01/16 02:58:24;;;;;;;;;0.67;0.00;;;;;11.75;100.00;98432.19;5099826;27;45474;-75
2023/01/16 03:00:58;;;;;;;;;0.00;0.00;;;;;11.85;100.00;98424.41;5069368;27;45564;-75
2023/01/16 03:03:42;;;;;;;;;0.00;0.00;;;;;11.90;100.00;98405.56;5097475;27;45348;-77
2023/01/16 03:06:19;;;;;;;;;3.00;0.00;;;;;11.61;100.00;98404.16;5088507;27;45460;-76
2023/01/16 03:08:44;;;;;;;;;0.00;0.00;;;;;11.63;100.00;98407.47;5095894;27;45420;-76
2023/01/16 03:11:22;;;;;;;;;0.67;0.00;;;;;11.75;100.00;98375.06;5077698;27;47095;-76
2023/01/16 03:13:56;;;;;;;;;0.00;0.00;;;;;9.08;100.00;98401.81;5085202;27;45237;-76
2023/01/16 03:16:50;;;;;;;;;0.00;0.00;;;;;8.70;100.00;98397.72;5080922;27;45295;-76
2023/01/16 03:19:34;;;;;;;;;0.00;0.00;;;;;8.41;100.00;98375.16;5097794;27;45229;-76
2023/01/16 03:22:18;;;;;;;;;0.67;0.67;;;;;8.32;100.00;98362.81;5098707;27;46591;-76
2023/01/16 03:24:55;;;;;;;;;1.00;1.00;;;;;8.09;100.00;98357.53;5098799;27;45376;-76
2023/01/16 03:27:29;;;;;;;;;0.00;0.00;;;;;7.78;100.00;98355.09;5090294;27;45443;-76
2023/01/16 03:29:59;;;;;;;;;0.00;0.00;;;;;7.75;100.00;98350.03;5096624;27;45236;-76
2023/01/16 03:32:55;;;;;;;;;0.00;0.00;;;;;7.88;100.00;98344.00;5093508;27;45535;-76
2023/01/16 03:35:46;;;;;;;;;0.00;0.00;;;;;7.83;100.00;98325.63;5085961;27;45282;-76
2023/01/16 03:38:14;;;;;;;;;0.00;0.00;;;;;7.87;100.00;98322.53;5093841;27;45538;-76
2023/01/16 03:40:46;;;;;;;;;0.00;0.00;;;;;8.09;100.00;98318.84;5092510;27;45418;-76
2023/01/16 03:43:27;;;;;;;;;2.00;0.00;;;;;8.00;100.00;98317.28;5090879;27;45396;-76
2023/01/16 03:46:09;;;;;;;;;0.00;0.00;;;;;8.06;100.00;98289.47;5080130;27;45653;-76
2023/01/16 03:48:47;;;;;;;;;0.00;0.00;;;;;7.99;100.00;98272.34;5077890;27;45412;-76
2023/01/16 03:51:21;;;;;;;;;0.00;0.00;;;;;7.85;100.00;98262.41;5101845;27;45559;-76
2023/01/16 03:53:56;;;;;;;;;1.00;0.00;;;;;7.86;100.00;98254.13;5074515;27;47037;-76
2023/01/16 03:56:33;;;;;;;;;0.00;0.00;;;;;7.75;100.00;98225.72;5097095;27;45432;-76
2023/01/16 03:59:00;;;;;;;;;1.00;0.00;;;;;7.60;100.00;98237.59;5081393;27;45409;-76
2023/01/16 04:01:43;;;;;;;;;0.00;0.00;;;;;7.70;100.00;98216.50;5082017;27;45566;-76
2023/01/16 04:04:18;;;;;;;;;1.00;0.00;;;;;7.58;100.00;98250.47;5084918;27;48660;-76
2023/01/16 04:06:46;;;;;;;;;1.00;0.00;;;;;8.26;100.00;98233.69;5081845;27;45474;-76
2023/01/16 04:09:29;;;;;;;;;0.00;0.00;;;;;8.67;100.00;98223.03;5085848;27;45448;-76
2023/01/16 04:11:57;;;;;;;;;0.00;0.00;;;;;8.20;100.00;98234.47;5090661;27;45164;-76
2023/01/16 04:14:24;;;;;;;;;0.00;0.00;;;;;7.38;100.00;98175.44;5092370;27;45668;-76
2023/01/16 04:16:50;;;;;;;;;0.00;0.00;;;;;7.57;100.00;98197.47;5070386;28;45702;-76
2023/01/16 04:19:18;;;;;;;;;1.00;0.00;;;;;7.67;100.00;98198.81;5097560;27;45438;-77
2023/01/16 04:21:46;;;;;;;;;0.00;0.00;;;;;7.73;100.00;98192.66;5090392;27;45534;-75
2023/01/16 04:24:13;;;;;;;;;0.00;0.00;;;;;7.62;100.00;98176.94;5095774;27;47022;-76
2023/01/16 04:26:38;;;;;;;;;0.00;0.00;;;;;7.76;100.00;98175.19;5086230;27;45236;-76
2023/01/16 04:29:03;;;;;;;;;0.00;0.00;;;;;7.70;100.00;98147.09;5099832;27;45326;-77
2023/01/16 04:31:29;;;;;;;;;0.00;0.00;;;;;7.87;100.00;98163.88;5088946;27;45301;-76
2023/01/16 04:33:54;;;;;;;;;0.00;0.00;;;;;7.85;100.00;98163.22;5095353;27;46574;-76
2023/01/16 04:36:20;;;;;;;;;0.00;0.00;;;;;7.82;100.00;98153.63;5086066;27;45457;-76
2023/01/16 04:38:46;;;;;;;;;0.00;0.00;;;;;7.70;100.00;98141.69;5094527;27;45377;-76
2023/01/16 04:41:11;;;;;;;;;0.00;0.00;;;;;7.71;100.00;98129.84;5093627;27;45605;-76
2023/01/16 04:43:37;;;;;;;;;0.00;0.00;;;;;7.70;100.00;98128.16;5089831;27;47731;-76
2023/01/16 04:46:02;;;;;;;;;0.00;0.00;;;;;7.70;100.00;98128.16;5085035;27;45248;-76
2023/01/16 04:48:28;;;;;;;;;0.00;0.00;;;;;7.71;100.00;98115.50;5091120;27;45483;-77
2023/01/16 04:50:53;;;;;;;;;0.00;0.00;;;;;7.75;100.00;98106.78;5094005;27;45394;-76
2023/01/16 04:53:18;;;;;;;;;0.00;0.00;;;;;7.72;100.00;98085.59;5077252;27;48233;-76
2023/01/16 04:55:44;;;;;;;;;0.00;0.00;;;;;7.78;100.00;98073.16;5090833;27;45350;-76
2023/01/16 04:58:09;;;;;;;;;0.00;0.00;;;;;7.85;100.00;98065.91;5099734;27;45268;-76
2023/01/16 05:00:35;;;;;;;;;0.00;0.00;;;;;7.80;100.00;98046.75;5069651;28;45629;-75
2023/01/16 05:03:00;;;;;;;;;0.00;0.00;;;;;7.72;100.00;98031.53;5098079;27;45675;-75
2023/01/16 05:05:25;;;;;;;;;0.00;0.00;;;;;7.47;100.00;98021.31;5087717;27;45331;-75
2023/01/16 05:08:15;;;;;;;;;1.00;0.00;;;;;7.60;100.00;98016.88;5096109;27;45320;-75
2023/01/16 05:10:37;;;;;;;;;0.00;0.00;;;;;7.57;100.00;98016.44;5089176;27;45663;-75
2023/01/16 05:13:02;;;;;;;;;0.00;0.00;;;;;7.46;100.00;98019.66;5083794;27;47433;-75
2023/01/16 05:15:28;;;;;;;;;0.00;0.00;;;;;7.61;100.00;98005.03;5099056;27;45315;-77
2023/01/16 05:17:54;;;;;;;;;0.00;0.00;;;;;7.71;100.00;97992.03;5082000;27;45393;-75
2023/01/16 05:20:20;;;;;;;;;0.67;0.00;;;;;7.77;100.00;97979.56;5102196;27;45677;-77
2023/01/16 05:22:45;;;;;;;;;0.00;0.00;;;;;7.82;100.00;97964.44;5100286;27;46355;-77
2023/01/16 05:25:10;;;;;;;;;0.00;0.00;;;;;7.88;100.00;97951.16;5100551;27;45315;-75
2023/01/16 05:27:36;;;;;;;;;0.00;0.00;;;;;7.98;100.00;97965.13;5101650;27;45336;-76
2023/01/16 05:30:01;;;;;;;;;2.00;0.00;;;;;7.87;100.00;97942.22;5100419;27;45317;-79
2023/01/16 05:32:26;;;;;;;;;0.00;0.00;;;;;7.79;100.00;97931.56;5097923;27;47533;-75
2023/01/16 05:34:52;;;;;;;;;0.00;0.00;;;;;7.91;100.00;97912.91;5099172;27;45460;-75
2023/01/16 05:37:17;;;;;;;;;1.67;0.00;;;;;7.91;100.00;97905.63;5080442;28;45472;-76
2023/01/16 05:39:42;;;;;;;;;0.00;0.00;;;;;7.83;100.00;97901.22;5099453;27;45389;-78
2023/01/16 05:42:20;;;;;;;;;0.00;0.00;;;;;7.88;100.00;97883.59;5098176;27;45630;-75
2023/01/16 05:44:47;;;;;;;;;0.00;0.00;;;;;7.97;100.00;97879.66;5081614;27;45207;-76
2023/01/16 05:47:13;;;;;;;;;1.00;1.00;;;;;8.02;100.00;97882.63;5096288;27;45392;-76
2023/01/16 05:49:38;;;;;;;;;0.00;0.00;;;;;8.03;100.00;97889.69;5099692;27;45217;-76
2023/01/16 05:52:03;;;;;;;;;0.00;0.00;;;;;8.07;100.00;97866.59;5080688;27;47076;-76
2023/01/16 05:54:29;;;;;;;;;1.00;1.00;;;;;8.07;100.00;97863.91;5098138;27;45302;-78
2023/01/16 05:56:54;;;;;;;;;2.00;2.00;;;;;8.07;100.00;97858.50;5103079;27;45373;-75
2023/01/16 05:59:19;;;;;;;;;0.67;0.67;;;;;8.21;100.00;97862.91;5103608;27;45395;-76
2023/01/16 06:01:45;;;;;;;;;1.00;0.00;;;;;8.17;100.00;97850.84;5092671;27;46682;-76
2023/01/16 06:04:10;;;;;;;;;0.00;0.00;;;;;8.08;100.00;97841.25;5102001;27;45353;-75
2023/01/16 06:06:35;;;;;;;;;0.00;0.00;;;;;8.12;100.00;97850.59;5097623;27;45489;-75
2023/01/16 06:09:01;;;;;;;;;1.33;1.33;;;;;8.20;100.00;97845.84;5101714;27;45381;-78
2023/01/16 06:11:26;;;;;;;;;0.00;0.00;;;;;8.18;100.00;97842.50;5082649;27;48289;-75
2023/01/16 06:13:51;;;;;;;;;1.33;1.33;;;;;8.24;100.00;97832.75;5103144;27;45300;-78
2023/01/16 06:16:17;;;;;;;;;2.00;0.00;;;;;8.28;100.00;97834.00;5081273;27;45416;-76
2023/01/16 06:18:42;;;;;;;;;2.00;0.00;;;;;8.15;100.00;97836.69;5105969;27;45351;-77
2023/01/16 06:21:07;;;;;;;;;0.00;0.00;;;;;8.14;100.00;97837.72;5084482;27;45614;-77
2023/01/16 06:23:33;;;;;;;;;1.33;0.00;;;;;8.10;100.00;97822.94;5077918;27;45476;-77
2023/01/16 06:25:59;;;;;;;;;3.00;0.00;;;;;8.08;100.00;97830.44;5101431;27;45518;-80
2023/01/16 06:28:24;;;;;;;;;1.00;1.00;;;;;8.17;100.00;97821.09;5096511;27;45444;-75
2023/01/16 06:30:51;;;;;;;;;0.00;0.00;;;;;8.08;100.00;97825.84;5102332;27;45598;-77
2023/01/16 06:33:17;;;;;;;;;1.00;0.00;;;;;8.10;100.00;97812.13;5083022;27;45285;-77
2023/01/16 06:35:42;;;;;;;;;0.33;0.33;;;;;8.09;100.00;97810.47;5098026;27;45406;-77
2023/01/16 06:38:08;;;;;;;;;0.00;0.00;;;;;8.10;100.00;97796.75;5096662;27;45694;-77
2023/01/16 06:40:33;;;;;;;;;2.00;0.00;;;;;8.13;100.00;97809.00;5102090;27;45447;-79
2023/01/16 06:42:59;;;;;;;;;0.00;0.00;;;;;8.01;100.00;97797.97;5095340;27;45380;-77
2023/01/16 06:45:24;;;;;;;;;2.00;0.33;;;;;8.04;100.00;97800.25;5102607;27;45313;-77
2023/01/16 06:47:53;;;;;;;;;0.67;0.67;;;;;7.88;100.00;97764.66;5094819;27;45495;-77
2023/01/16 06:50:19;;;;;;;;;2.00;0.00;;;;;7.81;100.00;97776.28;5093830;27;46637;-77
2023/01/16 06:52:44;;;;;;;;;0.00;0.00;;;;;7.86;100.00;97782.94;5095924;27;45464;-78
2023/01/16 06:55:10;;;;;;;;;0.00;0.00;;;;;7.70;100.00;97779.56;5099949;27;45321;-77
2023/01/16 06:57:36;;;;;;;;;2.00;2.00;;;;;7.67;100.00;97763.75;5078828;27;45593;-76
2023/01/16 07:00:03;;;;;;;;;3.00;1.00;;;;;7.81;100.00;97745.72;5100303;27;45358;-76
2023/01/16 07:02:28;;;;;;;;;1.67;1.00;;;;;7.60;100.00;97745.84;5095341;27;45413;-78
2023/01/16 07:04:54;;;;;;;;;0.00;0.00;;;;;7.64;100.00;97736.31;5103698;27;45287;-76
2023/01/16 07:07:19;;;;;;;;;1.00;0.00;;;;;7.70;100.00;97730.94;5093732;27;45308;-76
2023/01/16 07:09:44;;;;;;;;;1.00;0.00;;;;;7.92;100.00;97717.25;5081360;27;45460;-78
2023/01/16 07:12:10;;;;;;;;;0.67;0.67;;;;;7.90;100.00;97711.22;5079628;27;45505;-78
2023/01/16 07:22:48;;;;;;;;;0.00;0.00;;;;;7.90;100.00;97681.47;5099479;27;45522;-77
2023/01/16 07:25:18;;;;;;;;;0.33;0.33;;;;;7.96;100.00;97669.84;5096706;27;45245;-78
2023/01/16 07:27:47;;;;;;;;;0.67;0.00;;;;;7.94;100.00;97666.53;5096444;27;45494;-76
2023/01/16 07:30:14;;;;;;;;;2.00;0.00;;;;;7.96;100.00;97653.63;5098995;27;46265;-77
2023/01/16 07:32:40;;;;;;;;;2.00;0.33;;;;;7.89;100.00;97660.91;5081549;27;45521;-77
2023/01/16 07:35:07;;;;;;;;;0.00;0.00;;;;;8.03;100.00;97638.25;5079849;27;45302;-77
2023/01/16 07:37:32;;;;;;;;;2.00;2.00;;;;;8.11;100.00;97630.75;5095563;27;45396;-78
2023/01/16 07:39:58;;;;;;;;;1.67;1.00;;;;;8.07;100.00;97626.81;5083409;27;47363;-78
2023/01/16 07:42:23;;;;;;;;;2.00;2.00;;;;;8.08;100.00;97628.47;5078173;28;45416;-77
2023/01/16 07:44:48;;;;;;;;;2.00;2.00;;;;;8.07;100.00;97602.47;5096887;27;45454;-79
2023/01/16 07:47:14;;;;;;;;;2.00;1.00;;;;;8.07;100.00;97602.47;5094413;27;45439;-78
2023/01/16 07:49:39;;;;;;;;;0.00;0.00;;;;;8.06;100.00;97600.81;5101059;27;45531;-76
2023/01/16 07:52:04;;;;;;;;;0.67;0.00;;;;;8.12;100.00;97593.72;5098244;27;45599;-76
2023/01/16 07:54:30;;;;;;;;;0.00;0.00;;;;;7.93;100.00;97584.59;5101601;27;45264;-75
2023/01/16 07:56:55;;;;;;;;;0.00;0.00;;;;;7.94;100.00;97586.25;5095378;27;45484;-78
2023/01/16 07:59:20;;;;;;;;;0.00;0.00;;;;;7.99;100.00;97561.28;5102720;27;45199;-77
2023/01/16 08:01:46;;;;;;;;;1.33;1.00;;;;;7.91;100.00;97566.91;5096748;27;45470;-78
2023/01/16 08:04:12;;;;;;;;;0.00;0.00;;;;;8.00;100.00;97562.97;5099919;27;45394;-76
2023/01/16 08:06:43;;;;;;;;;4.33;2.33;;;;;8.01;100.00;97564.63;5097715;27;45348;-78
2023/01/16 08:09:10;;;;;;;;;2.00;0.00;;;;;7.95;100.00;97527.63;5085250;27;46493;-76
2023/01/16 08:11:35;;;;;;;;;1.00;0.67;;;;;8.01;100.00;97556.50;5092837;27;45129;-76
2023/01/16 08:14:02;;;;;;;;;4.33;3.00;;;;;7.97;100.00;97547.16;5096901;27;45329;-76
2023/01/16 08:16:28;;;;;;;;;1.00;1.00;;;;;7.91;100.00;97545.28;5082583;27;45204;-76
2023/01/16 08:18:53;;;;;;;;;1.00;1.00;;;;;8.11;100.00;97527.16;5084374;27;46961;-76
2023/01/16 08:21:18;;;;;;;;;0.00;0.00;;;;;8.00;100.00;97528.66;5094844;27;45407;-78
2023/01/16 08:23:44;;;;;;;;;0.00;0.00;;;;;7.95;100.00;97525.75;5079777;28;45640;-76
2023/01/16 08:26:11;;;;;;;;;5.67;1.00;;;;;7.92;100.00;97522.63;5087493;27;45272;-77
2023/01/16 08:28:36;;;;;;;;;0.00;0.00;;;;;7.80;100.00;97495.41;5080808;27;46884;-76
2023/01/16 08:31:13;;;;;;;;;1.00;0.00;;;;;7.84;100.00;97504.75;5090826;27;45479;-76
2023/01/16 08:33:40;;;;;;;;;1.00;0.00;;;;;7.90;100.00;97497.66;5076666;28;45438;-78
2023/01/16 08:36:08;;;;;;;;;1.33;1.33;;;;;7.85;100.00;97489.38;5088466;27;45454;-77
2023/01/16 08:38:33;;;;;;;;;0.00;0.00;;;;;7.87;100.00;97485.44;5097161;27;47569;-78
2023/01/16 08:40:59;;;;;;;;;0.33;0.33;;;;;7.75;100.00;97482.50;5086030;27;45872;-78
2023/01/16 08:51:55;;;;;;;;;0.00;0.00;;;;;7.60;100.00;97486.47;5100001;27;45370;-77
2023/01/16 08:54:20;;;;;;;;;0.00;0.00;;;;;7.38;100.00;97507.47;5110871;27;45160;-77
2023/01/16 08:56:45;;;;;;;;;0.33;0.33;;;;;7.40;100.00;97503.53;5099748;27;45495;-78
2023/01/16 08:59:11;;;;;;;;;0.00;0.00;;;;;7.38;100.00;97500.19;5099943;27;46297;-79
2023/01/16 09:01:38;;;;;;;;;0.00;0.00;;;;;7.52;100.00;97522.66;5093901;27;45420;-76
2023/01/16 09:04:04;;;;;;;;;0.00;0.00;;;;;7.33;100.00;97521.59;5089940;27;45421;-77
2023/01/16 09:06:30;;;;;;;;;0.00;0.00;;;;;7.13;100.00;97536.94;5100102;27;45317;-76
2023/01/16 09:08:55;;;;;;;;;0.00;0.00;;;;;7.16;100.00;97541.13;5090662;27;45678;-76
2023/01/16 09:14:05;;;;;;;;;0.00;0.00;;;;;7.25;100.00;97542.56;5099272;27;45454;-76
2023/01/16 09:16:30;;;;;;;;;1.00;1.00;;;;;7.06;100.00;97552.31;5094781;27;45519;-76
2023/01/16 09:18:55;;;;;;;;;0.67;0.00;;;;;6.87;100.00;97556.59;5101370;27;46409;-79
2023/01/16 09:21:23;;;;;;;;;0.00;0.00;;;;;6.76;100.00;97565.28;5087263;27;45522;-77
2023/01/16 09:23:50;;;;;;;;;0.67;0.67;;;;;6.90;100.00;97572.38;5084923;27;45532;-77
2023/01/16 09:26:17;;;;;;;;;1.00;0.00;;;;;6.75;100.00;97585.19;5088817;27;45572;-78
2023/01/16 09:28:42;;;;;;;;;0.00;0.00;;;;;6.79;100.00;97586.47;5088445;27;47773;-78
2023/01/16 09:31:09;;;;;;;;;0.00;0.00;;;;;6.86;100.00;97598.13;5095967;27;46010;-78
2023/01/16 09:33:34;;;;;;;;;0.00;0.00;;;;;6.79;100.00;97602.66;5103379;27;45357;-77
2023/01/16 09:35:59;;;;;;;;;0.00;0.00;;;;;6.48;100.00;97613.09;5094945;27;45337;-76
2023/01/16 09:38:27;;;;;;;;;0.00;0.00;;;;;6.45;100.00;97621.56;5082549;28;46185;-79
2023/01/16 09:40:57;;;;;;;;;0.00;0.00;;;;;6.54;100.00;97636.56;5091667;27;45337;-77
2023/01/16 09:43:40;;;;;;;;;0.00;0.00;;;;;6.54;100.00;97644.66;5098004;27;45305;-79
2023/01/16 09:46:19;;;;;;;;;1.00;0.33;;;;;6.39;100.00;97660.09;5095300;27;45287;-78
2023/01/16 09:48:55;;;;;;;;;1.00;0.00;;;;;6.49;100.00;97661.44;5110001;27;47015;-78
2023/01/16 09:51:30;;;;;;;;;1.00;1.00;;;;;6.61;100.00;97667.09;5079115;27;45363;-78
2023/01/16 09:59:54;;;;;;;;;2.00;2.00;;;;;6.64;100.00;97688.28;5093298;27;45408;-74
2023/01/16 10:02:33;;;;;;;;;1.00;0.00;;;;;6.70;100.00;97700.16;5076598;27;45249;-76
2023/01/16 10:05:00;;;;;;;;;2.00;2.00;;;;;6.86;100.00;97692.56;5073652;27;45408;-76
2023/01/16 10:07:38;;;;;;;;;0.00;0.00;;;;;6.83;100.00;97719.94;5093708;27;45406;-77
2023/01/16 10:10:25;;;;;;;;;0.33;0.00;;;;;7.03;100.00;97718.19;5085495;27;47250;-76
2023/01/16 10:13:00;;;;;;;;;1.00;1.00;;;;;6.97;100.00;97719.00;5098404;27;45397;-76
2023/01/16 10:15:36;;;;;;;;;1.00;1.00;;;;;7.17;100.00;97739.84;5071602;28;45458;-75
2023/01/16 10:18:34;;;;;;;;;2.33;2.33;;;;;7.21;100.00;97751.94;5091977;27;45545;-75
2023/01/16 10:21:09;;;;;;;;;1.00;1.00;;;;;7.33;100.00;97755.72;5086872;27;45482;-74
2023/01/16 10:23:45;;;;;;;;;1.00;1.00;;;;;7.33;100.00;97774.63;5096179;27;46331;-74
2023/01/16 10:26:22;;;;;;;;;2.67;2.67;;;;;7.27;100.00;97778.97;5091195;27;45494;-75
2023/01/16 10:29:20;;;;;;;;;1.00;1.00;;;;;7.04;100.00;97784.63;5099077;27;45348;-77
2023/01/16 10:32:24;;;;;;;;;2.00;0.00;;;;;7.05;100.00;97804.38;5100235;27;45575;-77
2023/01/16 10:35:15;;;;;;;;;3.00;2.33;;;;;6.98;100.00;97807.03;5070789;27;45374;-75
2023/01/16 10:37:43;;;;;;;;;2.67;2.67;;;;;6.84;100.00;97810.66;5092568;27;45844;-76
2023/01/16 10:40:17;;;;;;;;;8.67;8.67;;;;;6.85;100.00;97820.44;5093792;27;45295;-76
2023/01/16 10:51:07;;;;;;;;;1.00;1.00;;;;;6.60;100.00;97870.44;5096151;27;45251;-76
2023/01/16 10:53:35;;;;;;;;;1.67;1.67;;;;;6.87;100.00;97875.03;5085713;27;47036;-76
2023/01/16 10:56:01;;;;;;;;;1.67;1.67;;;;;6.85;100.00;97897.88;5077973;27;46347;-76
2023/01/16 10:58:29;;;;;;;;;1.67;1.33;;;;;7.14;100.00;97913.06;5103046;27;45288;-75
2023/01/16 11:01:26;;;;;;;;;0.00;0.00;;;;;6.91;100.00;97903.31;5086040;27;45299;-75
2023/01/16 11:04:04;;;;;;;;;0.00;0.00;;;;;6.92;100.00;97923.88;5077162;28;46623;-76
2023/01/16 11:06:30;;;;;;;;;1.33;0.00;;;;;6.81;100.00;97962.16;5089274;27;45539;-76
2023/01/16 11:09:19;;;;;;;;;0.00;0.00;;;;;6.61;100.00;97961.97;5075938;28;45318;-77
2023/01/16 11:20:17;;;;;;;;;0.00;0.00;;;;;6.13;100.00;98009.31;5097065;27;45385;-77
2023/01/16 11:22:44;;;;;;;;;0.00;0.00;;;;;6.11;100.00;98002.44;5094450;27;45403;-77
2023/01/16 11:25:17;;;;;;;;;1.67;0.33;;;;;6.04;100.00;98007.72;5080637;27;47987;-78
2023/01/16 11:27:44;;;;;;;;;1.00;0.00;;;;;6.23;100.00;98009.84;5071944;27;45380;-78
2023/01/16 11:30:26;;;;;;;;;1.67;1.67;;;;;6.31;100.00;98017.00;5094346;27;45354;-78
2023/01/16 11:32:54;;;;;;;;;0.00;0.00;;;;;6.33;100.00;98038.38;5077705;27;45364;-78
2023/01/16 11:35:21;;;;;;;;;0.00;0.00;;;;;6.42;100.00;98054.28;5074442;28;46869;-76
2023/01/16 11:37:50;;;;;;;;;1.00;1.00;;;;;6.51;100.00;98047.75;5071796;28;45385;-77
2023/01/16 11:40:23;;;;;;;;;0.33;0.33;;;;;6.56;100.00;98041.78;5074643;28;45401;-77
2023/01/16 11:48:37;;;;;;;;;4.67;4.67;;;;;6.58;100.00;98062.16;5093632;27;45311;-78
2023/01/16 11:51:04;;;;;;;;;4.33;1.67;;;;;6.70;100.00;98070.59;5089724;27;45544;-77
2023/01/16 11:53:31;;;;;;;;;0.33;0.33;;;;;6.80;100.00;98079.22;5097266;27;45256;-77
2023/01/16 11:56:17;;;;;;;;;1.00;1.00;;;;;6.73;100.00;98090.97;5084256;27;48040;-76
2023/01/16 11:58:56;;;;;;;;;1.67;0.33;;;;;6.91;100.00;98084.16;5097232;27;45237;-76
2023/01/16 12:02:16;;;;;;;;;1.00;0.00;;;;;7.04;100.00;98096.94;5085927;27;45267;-76
2023/01/16 12:08:06;;;;;;;;;0.00;0.00;;;;;6.98;100.00;98130.09;5096087;27;45470;-76
2023/01/16 12:10:57;;;;;;;;;0.00;0.00;;;;;6.82;100.00;98128.44;5084717;27;45589;-76
2023/01/16 12:16:36;;;;;;;;;0.00;0.00;;;;;7.17;100.00;98134.06;5087091;27;45310;-76
2023/01/16 12:19:20;;;;;;;;;0.67;0.00;;;;;7.10;100.00;98152.03;5094803;27;45422;-76
2023/01/16 12:21:45;;;;;;;;;0.00;0.00;;;;;7.19;100.00;98159.00;5083583;27;45352;-78
2023/01/16 12:24:13;;;;;;;;;3.00;3.00;;;;;7.32;100.00;98159.16;5079545;27;45492;-77
2023/01/16 12:27:05;;;;;;;;;0.00;0.00;;;;;7.37;100.00;98170.25;5089608;27;45721;-75
2023/01/16 12:29:44;;;;;;;;;0.00;0.00;;;;;7.67;100.00;98173.69;5067877;27;46536;-76
2023/01/16 12:32:24;;;;;;;;;0.00;0.00;;;;;7.50;100.00;98199.25;5085917;27;45703;-75
2023/01/16 12:35:21;;;;;;;;;0.67;0.00;;;;;7.35;100.00;98202.84;5093504;27;45411;-77
2023/01/16 12:37:58;;;;;;;;;1.00;1.00;;;;;7.50;100.00;98210.91;5076466;27;45183;-76
2023/01/16 12:40:43;;;;;;;;;0.33;0.33;;;;;7.66;100.00;98218.78;5083251;27;46759;-75
2023/01/16 12:43:44;;;;;;;;;1.00;1.00;;;;;7.28;100.00;98217.28;5089290;27;45354;-75
2023/01/16 12:46:20;;;;;;;;;1.00;1.00;;;;;7.26;100.00;98224.72;5097103;27;45484;-76